createdAt,value
2023-04-11T00:02:18.112Z,99977.13
2023-04-11T00:04:47.782Z,99976.19
2023-04-11T00:07:17.475Z,99960.75
2023-04-11T00:09:47.112Z,99971.47
2023-04-11T00:12:16.903Z,99962.59
2023-04-11T00:14:50.392Z,99962.81
2023-04-11T00:17:20.002Z,99957.63
2023-04-11T00:19:50.207Z,99958.75
2023-04-11T00:22:19.950Z,99960.56
2023-04-11T00:24:49.483Z,99959.63
2023-04-11T00:27:20.534Z,99962.31
2023-04-11T00:29:51.327Z,99944.03
2023-04-11T00:32:21.196Z,99934.63
2023-04-11T00:34:50.782Z,99936.47
2023-04-11T00:37:22.989Z,99924.00
2023-04-11T00:39:54.435Z,99913.81
2023-04-11T00:42:24.013Z,99913.31
2023-04-11T00:44:53.638Z,99920.75
2023-04-11T00:47:23.421Z,99913.78
2023-04-11T00:49:53.022Z,99903.88
2023-04-11T00:52:22.790Z,99889.88
2023-04-11T00:54:53.006Z,99907.63
2023-04-11T00:57:24.278Z,99926.28
2023-04-11T00:59:54.260Z,99923.84
2023-04-11T01:02:26.490Z,99916.28
2023-04-11T01:04:57.237Z,99912.22
2023-04-11T01:07:27.835Z,99922.69
2023-04-11T01:09:57.813Z,99916.53
2023-04-11T01:12:27.817Z,99892.44
2023-04-11T01:14:57.458Z,99892.75
2023-04-11T01:17:28.000Z,99879.91
2023-04-11T01:19:57.781Z,99913.78
2023-04-11T01:22:28.929Z,99914.66
2023-04-11T01:24:58.627Z,99919.41
2023-04-11T01:27:28.327Z,99919.66
2023-04-11T01:29:57.983Z,99892.47
2023-04-11T01:32:27.551Z,99908.41
2023-04-11T01:34:59.673Z,99917.13
2023-04-11T01:37:29.404Z,99915.28
2023-04-11T01:39:59.107Z,99921.19
2023-04-11T01:42:30.898Z,99918.97
2023-04-11T01:45:01.576Z,99916.91
2023-04-11T01:47:31.127Z,99926.28
2023-04-11T01:50:00.723Z,99922.81
2023-04-11T01:52:30.383Z,99919.09
2023-04-11T01:55:00.034Z,99924.00
2023-04-11T01:57:29.585Z,99923.19
2023-04-11T01:59:59.121Z,99943.88
2023-04-11T02:02:28.922Z,99948.53
2023-04-11T02:04:58.573Z,99932.09
2023-04-11T02:07:28.996Z,99951.09
2023-04-11T02:10:00.372Z,99928.38
2023-04-11T02:12:30.008Z,99930.94
2023-04-11T02:14:59.560Z,99948.19
2023-04-11T02:17:32.467Z,99955.47
2023-04-11T02:20:02.597Z,99944.16
2023-04-11T02:22:32.343Z,99954.69
2023-04-11T02:25:02.265Z,99944.59
2023-04-11T02:27:32.950Z,99940.34
2023-04-11T02:30:02.716Z,99947.84
2023-04-11T02:32:32.938Z,99955.84
2023-04-11T02:35:02.915Z,99931.88
2023-04-11T02:37:32.863Z,99938.81
2023-04-11T02:40:05.424Z,99940.19
2023-04-11T02:42:35.095Z,99949.13
2023-04-11T02:45:05.374Z,99953.63
2023-04-11T02:47:35.029Z,99952.25
2023-04-11T02:50:04.657Z,99933.94
2023-04-11T02:52:35.165Z,99928.38
2023-04-11T02:55:05.352Z,99945.53
2023-04-11T02:57:34.906Z,99947.84
2023-04-11T03:00:08.636Z,99946.41
2023-04-11T03:02:38.727Z,99937.63
2023-04-11T03:05:09.015Z,99938.81
2023-04-11T03:07:40.185Z,99925.13
2023-04-11T03:10:10.675Z,99928.28
2023-04-11T03:12:40.339Z,99942.97
2023-04-11T03:15:10.488Z,99943.41
2023-04-11T03:17:40.126Z,99933.09
2023-04-11T03:20:13.204Z,99924.59
2023-04-11T03:22:42.804Z,99902.81
2023-04-11T03:25:12.830Z,99909.94
2023-04-11T03:27:42.446Z,99914.59
2023-04-11T03:30:12.477Z,99905.88
2023-04-11T03:32:42.444Z,99906.16
2023-04-11T03:35:12.286Z,99881.88
2023-04-11T03:37:42.073Z,99875.19
2023-04-11T03:40:12.205Z,99872.59
2023-04-11T03:42:41.901Z,99867.97
2023-04-11T03:45:11.943Z,99883.72
2023-04-11T03:47:42.501Z,99846.63
2023-04-11T03:50:12.772Z,99869.44
2023-04-11T03:52:42.388Z,99870.69
2023-04-11T03:55:12.153Z,99864.81
2023-04-11T03:57:41.774Z,99863.41
2023-04-11T04:00:12.313Z,99863.75
2023-04-11T04:02:42.324Z,99865.09
2023-04-11T04:05:12.367Z,99865.03
2023-04-11T04:07:42.002Z,99862.59
2023-04-11T04:10:11.901Z,99851.66
2023-04-11T04:12:42.334Z,99844.13
2023-04-11T04:15:12.872Z,99849.41
2023-04-11T04:17:43.384Z,99856.66
2023-04-11T04:20:13.331Z,99868.75
2023-04-11T04:22:42.932Z,99885.34
2023-04-11T04:25:14.218Z,99896.75
2023-04-11T04:27:45.805Z,99909.63
2023-04-11T04:30:20.680Z,99850.16
2023-04-11T04:32:50.330Z,99858.47
2023-04-11T04:35:19.916Z,99877.84
2023-04-11T04:37:49.515Z,99885.13
2023-04-11T04:40:21.963Z,99883.25
2023-04-11T04:42:51.565Z,99876.03
2023-04-11T04:45:21.264Z,99885.28
2023-04-11T04:47:50.878Z,99924.47
2023-04-11T04:50:21.450Z,99950.28
2023-04-11T04:52:51.016Z,99951.31
2023-04-11T04:55:20.554Z,99928.97
2023-04-11T04:57:50.066Z,99960.38
2023-04-11T05:00:21.153Z,99927.81
2023-04-11T05:02:56.277Z,99933.69
2023-04-11T05:05:25.994Z,99939.34
2023-04-11T05:07:55.595Z,99942.31
2023-04-11T05:10:25.287Z,99953.31
2023-04-11T05:12:55.096Z,99934.34
2023-04-11T05:15:25.057Z,99949.44
2023-04-11T05:17:54.749Z,99960.00
2023-04-11T05:20:26.253Z,99939.91
2023-04-11T05:22:55.895Z,99934.06
2023-04-11T05:25:25.476Z,99949.00
2023-04-11T05:27:55.092Z,99930.06
2023-04-11T05:30:24.840Z,99929.31
2023-04-11T05:32:54.474Z,99946.81
2023-04-11T05:35:24.181Z,99946.44
2023-04-11T05:37:53.804Z,99932.66
2023-04-11T05:40:23.487Z,99945.41
2023-04-11T05:42:53.260Z,99943.97
2023-04-11T05:45:22.866Z,99939.06
2023-04-11T05:47:52.587Z,99911.94
2023-04-11T05:50:22.176Z,99928.88
2023-04-11T05:52:51.796Z,99942.75
2023-04-11T05:55:21.440Z,99950.22
2023-04-11T05:57:51.008Z,99953.34
2023-04-11T06:00:22.405Z,99956.28
2023-04-11T06:02:53.216Z,99963.59
2023-04-11T06:05:23.527Z,99968.81
2023-04-11T06:07:53.402Z,99971.56
2023-04-11T06:10:23.031Z,99960.53
2023-04-11T06:12:52.639Z,99953.38
2023-04-11T06:15:23.038Z,99970.44
2023-04-11T06:17:52.713Z,99966.69
2023-04-11T06:20:23.517Z,99974.69
2023-04-11T06:22:53.045Z,99976.28
2023-04-11T06:25:23.722Z,99973.31
2023-04-11T06:27:53.403Z,99974.59
2023-04-11T06:30:23.016Z,99979.63
2023-04-11T06:32:52.853Z,99992.50
2023-04-11T06:35:26.295Z,99990.38
2023-04-11T06:37:55.896Z,99988.09
2023-04-11T06:40:25.475Z,99998.81
2023-04-11T06:42:55.089Z,99985.00
2023-04-11T06:45:24.702Z,99997.41
2023-04-11T06:47:54.298Z,100001.81
2023-04-11T06:50:24.346Z,99997.69
2023-04-11T06:52:54.001Z,99981.81
2023-04-11T06:55:24.499Z,99985.66
2023-04-11T06:57:54.080Z,99992.66
2023-04-11T07:00:23.892Z,99995.78
2023-04-11T07:02:54.113Z,100000.19
2023-04-11T07:05:23.794Z,100013.44
2023-04-11T07:07:53.346Z,100013.28
2023-04-11T07:10:23.050Z,100003.88
2023-04-11T07:12:52.711Z,100012.22
2023-04-11T07:15:23.073Z,100012.75
2023-04-11T07:17:53.012Z,100016.03
2023-04-11T07:20:22.752Z,100021.06
2023-04-11T07:22:52.380Z,100018.97
2023-04-11T07:25:24.101Z,100017.66
2023-04-11T07:27:54.632Z,100014.00
2023-04-11T07:30:24.731Z,100010.91
2023-04-11T07:32:54.507Z,100033.56
2023-04-11T07:35:24.790Z,100035.09
2023-04-11T07:37:55.217Z,100042.66
2023-04-11T07:40:24.895Z,100034.56
2023-04-11T07:42:54.682Z,100041.50
2023-04-11T07:45:24.400Z,100039.25
2023-04-11T07:47:54.031Z,100040.56
2023-04-11T07:50:23.698Z,100043.16
2023-04-11T07:52:53.240Z,100047.78
2023-04-11T07:55:22.867Z,100051.94
2023-04-11T07:57:52.515Z,100049.91
2023-04-11T08:00:24.351Z,100040.41
2023-04-11T08:02:54.381Z,100042.50
2023-04-11T08:05:24.120Z,100045.25
2023-04-11T08:07:53.942Z,100047.53
2023-04-11T08:10:23.550Z,100047.91
2023-04-11T08:12:53.641Z,100055.41
2023-04-11T08:15:23.553Z,100055.41
2023-04-11T08:17:53.423Z,100039.25
2023-04-11T08:20:23.083Z,100051.16
2023-04-11T08:22:52.748Z,100046.06
2023-04-11T08:25:26.547Z,100034.88
2023-04-11T08:27:56.121Z,100036.13
2023-04-11T08:30:26.359Z,100053.25
2023-04-11T08:32:56.002Z,100035.19
2023-04-11T08:35:25.695Z,100041.47
2023-04-11T08:37:55.526Z,100041.63
2023-04-11T08:40:26.979Z,100033.66
2023-04-11T08:43:03.299Z,100046.59
2023-04-11T08:45:32.907Z,100055.59
2023-04-11T08:48:02.465Z,100056.75
2023-04-11T08:50:32.154Z,100067.47
2023-04-11T08:53:04.828Z,100068.28
2023-04-11T08:55:34.446Z,100062.72
2023-04-11T08:58:05.284Z,100068.38
2023-04-11T09:00:34.980Z,100079.00
2023-04-11T09:03:08.978Z,100071.41
2023-04-11T09:05:43.976Z,100082.34
2023-04-11T09:08:18.423Z,100082.44
2023-04-11T09:10:48.696Z,100072.13
2023-04-11T09:13:30.285Z,100069.56
2023-04-11T09:16:13.770Z,100068.66
2023-04-11T09:18:45.930Z,100073.31
2023-04-11T09:21:17.534Z,100083.16
2023-04-11T09:23:47.222Z,100099.81
2023-04-11T09:26:31.859Z,100092.41
2023-04-11T09:29:02.100Z,100069.03
2023-04-11T09:31:47.874Z,100085.03
2023-04-11T09:34:28.860Z,100103.13
2023-04-11T09:36:59.030Z,100105.00
2023-04-11T09:39:30.902Z,100101.91
2023-04-11T09:42:00.950Z,100099.75
2023-04-11T09:44:48.121Z,100077.72
2023-04-11T09:47:17.857Z,100092.56
2023-04-11T09:49:48.715Z,100091.34
2023-04-11T09:52:19.886Z,100096.84
2023-04-11T09:54:52.775Z,100122.00
2023-04-11T09:57:24.735Z,100123.56
2023-04-11T09:59:56.159Z,100128.69
2023-04-11T10:02:25.842Z,100119.28
2023-04-11T10:04:56.148Z,100119.53
2023-04-11T10:07:26.348Z,100119.53
2023-04-11T10:09:56.192Z,100126.34
2023-04-11T10:12:36.770Z,100121.53
2023-04-11T10:15:10.187Z,100153.97
2023-04-11T10:17:41.386Z,100157.38
2023-04-11T10:20:47.507Z,100164.13
2023-04-11T10:23:18.049Z,100172.09
2023-04-11T10:25:52.462Z,100174.34
2023-04-11T10:28:41.523Z,100176.56
2023-04-11T10:31:14.799Z,100162.88
2023-04-11T10:34:16.830Z,100162.56
2023-04-11T10:37:05.919Z,100175.34
2023-04-11T10:39:53.629Z,100170.28
2023-04-11T10:42:40.052Z,100162.56
2023-04-11T10:45:30.494Z,100160.63
2023-04-11T10:48:09.051Z,100159.81
2023-04-11T10:50:42.543Z,100164.94
2023-04-11T10:53:35.384Z,100183.66
2023-04-11T10:56:05.556Z,100184.16
2023-04-11T10:58:41.071Z,100197.91
2023-04-11T11:01:26.641Z,100203.00
2023-04-11T11:04:02.318Z,100191.50
2023-04-11T11:06:32.985Z,100214.75
2023-04-11T11:09:22.852Z,100210.81
2023-04-11T11:12:17.731Z,100207.94
2023-04-11T11:14:50.058Z,100218.94
2023-04-11T11:17:20.317Z,100222.72
2023-04-11T11:19:50.943Z,100232.94
2023-04-11T11:22:30.149Z,100234.06
2023-04-11T11:25:10.651Z,100232.63
2023-04-11T11:27:40.275Z,100239.66
2023-04-11T11:30:13.676Z,100244.34
2023-04-11T11:32:43.283Z,100250.66
2023-04-11T11:35:16.160Z,100255.13
2023-04-11T11:37:45.974Z,100263.31
2023-04-11T11:40:15.933Z,100289.63
2023-04-11T11:42:45.956Z,100283.97
2023-04-11T11:47:56.569Z,100309.69
2023-04-11T11:50:33.493Z,100312.88
2023-04-11T11:53:17.432Z,100308.78
2023-04-11T11:55:46.623Z,100315.78
2023-04-11T11:58:16.952Z,100332.59
2023-04-11T12:00:51.632Z,100332.88
2023-04-11T12:03:25.326Z,100340.03
2023-04-11T12:05:59.626Z,100341.09
2023-04-11T12:08:29.177Z,100357.50
2023-04-11T12:10:58.732Z,100354.97
2023-04-11T12:13:29.288Z,100364.13
2023-04-11T12:16:03.020Z,100369.59
2023-04-11T12:18:32.705Z,100369.31
2023-04-11T12:21:02.324Z,100383.94
2023-04-11T12:23:31.891Z,100387.63
2023-04-11T12:26:02.202Z,100397.72
2023-04-11T12:28:32.078Z,100393.91
2023-04-11T12:31:01.765Z,100398.78
2023-04-11T12:33:31.399Z,100395.03
2023-04-11T12:36:00.977Z,100391.06
2023-04-11T12:38:30.508Z,100406.16
2023-04-11T12:41:19.665Z,100407.16
2023-04-11T12:43:49.706Z,100406.38
2023-04-11T12:46:20.258Z,100408.44
2023-04-11T12:48:49.956Z,100417.69
2023-04-11T12:51:19.596Z,100416.34
2023-04-11T12:53:49.153Z,100415.28
2023-04-11T12:56:18.702Z,100421.84
2023-04-11T12:58:48.453Z,100425.03
2023-04-11T13:01:18.852Z,100415.38
2023-04-11T13:03:48.597Z,100423.94
2023-04-11T13:06:18.467Z,100420.44
2023-04-11T13:08:48.600Z,100434.47
2023-04-11T13:11:18.179Z,100440.56
2023-04-11T13:13:47.886Z,100436.69
2023-04-11T13:16:18.159Z,100437.41
2023-04-11T13:18:47.820Z,100436.41
2023-04-11T13:21:17.840Z,100423.84
2023-04-11T13:23:47.894Z,100436.75
2023-04-11T13:26:17.497Z,100444.22
2023-04-11T13:28:47.902Z,100452.09
2023-04-11T13:31:17.529Z,100450.84
2023-04-11T13:33:49.383Z,100463.47
2023-04-11T13:36:19.039Z,100471.59
2023-04-11T13:38:49.742Z,100472.34
2023-04-11T13:41:19.414Z,100482.03
2023-04-11T13:43:49.140Z,100489.28
2023-04-11T13:46:18.857Z,100500.88
2023-04-11T13:48:48.786Z,100495.97
2023-04-11T13:51:18.598Z,100506.91
2023-04-11T13:53:48.155Z,100503.09
2023-04-11T13:56:17.820Z,100503.53
2023-04-11T13:58:47.681Z,100521.25
2023-04-11T14:01:17.335Z,100522.03
2023-04-11T14:03:46.962Z,100528.03
2023-04-11T14:06:16.697Z,100534.00
2023-04-11T14:08:46.277Z,100538.97
2023-04-11T14:11:15.990Z,100544.72
2023-04-11T14:13:45.571Z,100552.03
2023-04-11T14:16:15.349Z,100559.16
2023-04-11T14:18:46.089Z,100568.19
2023-04-11T14:21:15.884Z,100559.94
2023-04-11T14:23:45.432Z,100573.97
2023-04-11T14:26:14.964Z,100578.13
2023-04-11T14:28:44.544Z,100577.28
2023-04-11T14:31:14.240Z,100571.25
2023-04-11T14:33:43.860Z,100588.75
2023-04-11T14:36:13.482Z,100593.03
2023-04-11T14:38:43.017Z,100588.28
2023-04-11T14:41:12.604Z,100607.84
2023-04-11T14:43:42.728Z,100602.28
2023-04-11T14:46:12.447Z,100606.34
2023-04-11T14:48:42.048Z,100620.13
2023-04-11T14:51:11.598Z,100625.06
2023-04-11T14:53:41.207Z,100633.88
2023-04-11T14:56:11.156Z,100634.41
2023-04-11T14:58:41.391Z,100645.34
2023-04-11T15:01:11.005Z,100647.31
2023-04-11T15:03:40.701Z,100643.47
2023-04-11T15:06:12.617Z,100648.97
2023-04-11T15:08:42.711Z,100662.69
2023-04-11T15:11:12.295Z,100671.50
2023-04-11T15:13:41.875Z,100683.69
2023-04-11T15:16:11.861Z,100671.56
2023-04-11T15:18:42.197Z,100685.00
2023-04-11T15:21:11.775Z,100682.63
2023-04-11T15:23:41.672Z,100690.78
2023-04-11T15:26:11.747Z,100683.94
2023-04-11T15:28:43.154Z,100691.69
2023-04-11T15:31:14.346Z,100681.78
2023-04-11T15:33:44.658Z,100687.28
2023-04-11T15:36:14.219Z,100692.78
2023-04-11T15:38:43.772Z,100692.31
2023-04-11T15:41:14.731Z,100695.00
2023-04-11T15:43:44.375Z,100696.72
2023-04-11T15:46:14.002Z,100696.16
2023-04-11T15:48:43.541Z,100701.88
2023-04-11T15:51:15.494Z,100698.84
2023-04-11T15:53:45.097Z,100693.38
2023-04-11T15:56:15.066Z,100698.88
2023-04-11T15:58:44.803Z,100701.91
2023-04-11T16:01:26.531Z,100696.16
2023-04-11T16:03:57.036Z,100707.41
2023-04-11T16:06:27.451Z,100717.00
2023-04-11T16:08:57.590Z,100715.13
2023-04-11T16:11:27.388Z,100713.72
2023-04-11T16:13:57.389Z,100718.66
2023-04-11T16:16:27.353Z,100721.97
2023-04-11T16:18:56.967Z,100737.88
2023-04-11T16:21:26.611Z,100723.59
2023-04-11T16:23:56.867Z,100731.78
2023-04-11T16:26:26.611Z,100724.66
2023-04-11T16:28:56.220Z,100729.31
2023-04-11T16:31:26.451Z,100736.16
2023-04-11T16:33:56.744Z,100721.66
2023-04-11T16:36:26.543Z,100731.16
2023-04-11T16:38:56.698Z,100731.38
2023-04-11T16:41:26.530Z,100732.72
2023-04-11T16:43:56.391Z,100722.63
2023-04-11T16:46:26.122Z,100719.31
2023-04-11T16:48:55.672Z,100718.31
2023-04-11T16:51:25.424Z,100715.84
2023-04-11T16:53:55.244Z,100707.16
2023-04-11T16:56:26.626Z,100706.56
2023-04-11T16:58:57.437Z,100719.00
2023-04-11T17:01:27.026Z,100722.88
2023-04-11T17:03:57.385Z,100733.09
2023-04-11T17:06:27.455Z,100739.97
2023-04-11T17:08:58.907Z,100741.91
2023-04-11T17:11:28.482Z,100744.97
2023-04-11T17:13:58.154Z,100738.03
2023-04-11T17:16:28.578Z,100739.25
2023-04-11T17:18:58.272Z,100738.97
2023-04-11T17:21:27.997Z,100738.00
2023-04-11T17:23:58.113Z,100731.75
2023-04-11T17:26:27.798Z,100739.81
2023-04-11T17:28:57.399Z,100729.28
2023-04-11T17:31:29.576Z,100744.28
2023-04-11T17:33:59.520Z,100741.16
2023-04-11T17:36:30.375Z,100748.50
2023-04-11T17:38:59.940Z,100746.78
2023-04-11T17:41:29.505Z,100739.53
2023-04-11T17:43:59.414Z,100757.25
2023-04-11T17:46:29.250Z,100758.19
2023-04-11T17:48:58.799Z,100765.59
2023-04-11T17:51:29.348Z,100752.75
2023-04-11T17:53:59.533Z,100746.59
2023-04-11T17:56:29.413Z,100758.97
2023-04-11T17:58:58.971Z,100763.59
2023-04-11T18:01:33.597Z,100754.66
2023-04-11T18:04:03.804Z,100757.72
2023-04-11T18:06:35.765Z,100761.06
2023-04-11T18:09:05.698Z,100749.53
2023-04-11T18:11:35.565Z,100766.53
2023-04-11T18:14:05.219Z,100773.03
2023-04-11T18:16:34.985Z,100770.16
2023-04-11T18:19:07.891Z,100770.31
2023-04-11T18:21:37.555Z,100766.59
2023-04-11T18:24:07.315Z,100778.34
2023-04-11T18:26:37.132Z,100781.44
2023-04-11T18:29:07.545Z,100781.22
2023-04-11T18:31:37.272Z,100788.47
2023-04-11T18:34:07.525Z,100799.09
2023-04-11T18:36:37.906Z,100795.31
2023-04-11T18:39:07.469Z,100802.63
2023-04-11T18:41:37.051Z,100807.28
2023-04-11T18:44:09.241Z,100798.16
2023-04-11T18:46:39.539Z,100797.22
2023-04-11T18:49:09.843Z,100799.22
2023-04-11T18:51:39.733Z,100807.22
2023-04-11T18:54:09.336Z,100803.88
2023-04-11T18:56:40.218Z,100806.16
2023-04-11T18:59:10.692Z,100812.06
2023-04-11T19:01:40.963Z,100793.25
2023-04-11T19:04:10.926Z,100810.50
2023-04-11T19:06:40.604Z,100811.31
2023-04-11T19:09:10.823Z,100810.63
2023-04-11T19:11:40.509Z,100811.63
2023-04-11T19:14:11.620Z,100807.81
2023-04-11T19:16:41.394Z,100802.69
2023-04-11T19:19:11.029Z,100804.38
2023-04-11T19:21:40.882Z,100803.28
2023-04-11T19:24:11.197Z,100808.41
2023-04-11T19:26:41.020Z,100809.63
2023-04-11T19:29:10.674Z,100808.00
2023-04-11T19:31:40.240Z,100811.13
2023-04-11T19:34:09.874Z,100813.28
2023-04-11T19:36:39.505Z,100819.16
2023-04-11T19:39:09.823Z,100821.53
2023-04-11T19:41:39.459Z,100819.06
2023-04-11T19:44:09.128Z,100816.91
2023-04-11T19:46:38.660Z,100816.09
2023-04-11T19:49:08.376Z,100826.56
2023-04-11T19:51:38.321Z,100804.66
2023-04-11T19:54:07.915Z,100825.75
2023-04-11T19:56:40.608Z,100830.31
2023-04-11T19:59:10.229Z,100837.31
2023-04-11T20:01:39.930Z,100833.72
2023-04-11T20:04:09.755Z,100849.34
2023-04-11T20:06:39.456Z,100847.38
2023-04-11T20:09:09.039Z,100847.59
2023-04-11T20:11:39.236Z,100851.41
2023-04-11T20:14:09.634Z,100842.41
2023-04-11T20:16:39.427Z,100845.34
2023-04-11T20:19:09.744Z,100856.44
2023-04-11T20:21:39.341Z,100855.94
2023-04-11T20:24:11.009Z,100859.47
2023-04-11T20:26:40.637Z,100867.09
2023-04-11T20:29:10.179Z,100860.03
2023-04-11T20:31:39.756Z,100867.16
2023-04-11T20:34:09.420Z,100868.69
2023-04-11T20:36:39.611Z,100876.16
2023-04-11T20:39:09.306Z,100869.47
2023-04-11T20:41:41.937Z,100871.88
2023-04-11T20:44:11.550Z,100874.69
2023-04-11T20:46:41.136Z,100883.34
2023-04-11T20:49:10.959Z,100891.34
2023-04-11T20:51:40.577Z,100896.22
2023-04-11T20:54:10.177Z,100895.41
2023-04-11T20:56:39.941Z,100892.28
2023-04-11T20:59:10.652Z,100897.88
2023-04-11T21:01:40.632Z,100892.28
2023-04-11T21:04:11.221Z,100896.56
2023-04-11T21:06:40.853Z,100902.63
2023-04-11T21:09:10.960Z,100900.69
2023-04-11T21:11:40.538Z,100906.44
2023-04-11T21:14:10.107Z,100910.50
2023-04-11T21:16:39.663Z,100906.69
2023-04-11T21:19:09.203Z,100909.28
2023-04-11T21:21:42.164Z,100916.19
2023-04-11T21:24:11.802Z,100911.75
2023-04-11T21:26:41.489Z,100912.56
2023-04-11T21:29:12.280Z,100915.22
2023-04-11T21:31:41.893Z,100915.06
2023-04-11T21:34:11.499Z,100917.13
2023-04-11T21:36:41.104Z,100915.22
2023-04-11T21:39:10.834Z,100924.16
2023-04-11T21:41:40.445Z,100920.91
2023-04-11T21:44:10.022Z,100919.66
2023-04-11T21:46:39.662Z,100920.09
2023-04-11T21:49:09.377Z,100932.94
2023-04-11T21:51:38.928Z,100935.81
2023-04-11T21:54:08.645Z,100927.38
2023-04-11T21:56:38.796Z,100936.25
2023-04-11T21:59:08.625Z,100944.19
2023-04-11T22:01:38.648Z,100954.84
2023-04-11T22:04:12.194Z,100944.72
2023-04-11T22:06:47.786Z,100949.63
2023-04-11T22:09:21.865Z,100955.91
2023-04-11T22:11:51.974Z,100958.53
2023-04-11T22:14:21.904Z,100956.25
2023-04-11T22:16:51.543Z,100959.41
2023-04-11T22:19:21.172Z,100964.75
2023-04-11T22:21:57.325Z,100966.44
2023-04-11T22:24:32.440Z,100971.38
2023-04-11T22:27:05.693Z,100964.88
2023-04-11T22:29:35.924Z,100975.03
2023-04-11T22:32:05.798Z,100979.38
2023-04-11T22:34:35.743Z,100968.75
2023-04-11T22:37:05.508Z,100974.19
2023-04-11T22:39:35.857Z,100977.81
2023-04-11T22:42:06.336Z,100976.16
2023-04-11T22:44:36.206Z,100984.44
2023-04-11T22:47:15.060Z,100989.66
2023-04-11T22:49:46.222Z,100990.47
2023-04-11T22:52:16.376Z,100992.09
2023-04-11T22:54:46.043Z,100992.16
2023-04-11T22:57:15.643Z,100986.66
2023-04-11T22:59:45.195Z,100983.34
2023-04-11T23:02:16.315Z,100992.19
2023-04-11T23:04:46.578Z,100981.44
2023-04-11T23:07:18.537Z,100981.97
2023-04-11T23:09:48.708Z,100971.78
2023-04-11T23:12:18.516Z,100978.41
2023-04-11T23:14:48.124Z,100970.69
2023-04-11T23:17:17.901Z,100969.84
2023-04-11T23:19:47.570Z,100961.56
2023-04-11T23:22:17.490Z,100955.25
2023-04-11T23:24:47.185Z,100960.72
2023-04-11T23:27:16.759Z,100958.75
2023-04-11T23:29:51.682Z,100965.41
2023-04-11T23:32:21.725Z,100968.38
2023-04-11T23:34:51.401Z,100963.59
2023-04-11T23:37:21.200Z,100966.63
2023-04-11T23:39:50.829Z,100958.13
2023-04-11T23:42:20.355Z,100947.91
2023-04-11T23:44:50.146Z,100953.91
2023-04-11T23:47:19.722Z,100946.72
2023-04-11T23:49:49.333Z,100955.06
2023-04-11T23:52:18.899Z,100947.75
2023-04-11T23:54:49.428Z,100949.91
2023-04-11T23:57:19.294Z,100951.59
2023-04-11T23:59:48.967Z,100948.16
